• Join FlightAware (Why Join?)
  • Login
  • US Flag 
12:05PM EDT


 

Airport Tracker/Info


-or-


 

Live Flight TrackerFlight Track Log ✈ FLG3861 ✈ 13-Sep-2013 ✈ KDTW - KBGM

Flight Track Log - Related Links

Times and Time Zones

All times are in EDT time to prevent confusion due to time zone crossing. See the FLG3861 flight status page for this flight to view local times or setup timezone preferences in your user account.

Time Position Orientation Groundspeed Altitude Reporting Facility
EDT Latitude Longitude Course Direction KTS MPH feet Rate Location/Type
09:39PM 42.2225 -83.3564 30° Northeast 144 166 1,300  Level Cleveland Center
09:40PM 42.2500 -83.3350 30° Northeast 194 223 2,600 2,700 Climbing Cleveland Center
09:41PM 42.3014 -83.2839 36° Northeast 188 216 6,500 2,220 Climbing Cleveland Center
09:43PM 42.3036 -83.0958 89° East 282 325 10,000 1,080 Climbing Cleveland Center
09:44PM 42.2978 -82.9667 93° East 311 358 10,000 840 Level Cleveland Center
09:45PM 42.3028 -82.8319 87° East 336 387 11,700 1,620 Climbing Cleveland Center
09:46PM 42.3283 -82.6953 76° East 357 411 13,300 1,500 Climbing Cleveland Center
09:47PM 42.3494 -82.5525 79° East 371 427 14,800 1,320 Climbing Cleveland Center
09:48PM 42.3644 -82.4097 82° East 376 433 16,000 1,080 Climbing Cleveland Center
09:49PM 42.3583 -82.2606 93° East 381 438 17,000 900 Climbing Cleveland Center
09:50PM 42.3522 -82.1031 93° East 396 456 17,800 900 Climbing Cleveland Center
09:51PM 42.3478 -81.9458 92° East 417 480 18,900 1,020 Climbing Cleveland Center
09:52PM 42.3392 -81.7911 94° East 423 487 19,900 960 Climbing Cleveland Center
09:53PM 42.3303 -81.6308 94° East 423 487 20,900 960 Climbing Cleveland Center
09:54PM 42.3214 -81.4592 94° East 423 487 21,900 960 Climbing Cleveland Center
09:55PM 42.3161 -81.3047 93° East 423 487 22,900 1,020 Climbing Cleveland Center
09:56PM 42.3067 -81.1475 95° East 423 487 24,000 1,020 Climbing Cleveland Center
09:57PM 42.2989 -80.9903 94° East 423 487 25,000 960 Climbing Cleveland Center
09:58PM 42.2911 -80.8414 94° East 417 480 26,000 840 Climbing Cleveland Center
09:59PM 42.2850 -80.6897 93° East 406 467 26,700 660 Climbing Cleveland Center
10:00PM 42.2767 -80.5356 94° East 406 467 27,400 660 Climbing Cleveland Center
10:01PM 42.2683 -80.3783 94° East 406 467 28,100 600 Climbing Cleveland Center
10:02PM 42.2575 -80.2408 96° East 406 467 28,600 420 Climbing Cleveland Center
10:03PM 42.2508 -80.0867 93° East 406 467 29,000 180 Climbing Cleveland Center
10:04PM 42.2394 -79.9128 95° East 415 478 29,000  Level Cleveland Center
10:05PM 42.2319 -79.7447 93° East 426 490 29,000  Level Cleveland Center
10:06PM 42.2203 -79.5822 95° East 436 502 29,000  Level Cleveland Center
10:07PM 42.2083 -79.4142 95° East 441 507 29,000 -240 Level Cleveland Center
10:08PM 42.1981 -79.2464 95° East 441 507 28,600 -720 Descending Cleveland Center
10:09PM 42.1900 -79.0783 94° East 441 507 27,600 -960 Descending Cleveland Center
10:10PM 42.1922 -78.9408 89° East 441 507 26,700 -1,080 Descending Cleveland Center
10:11PM 42.1953 -78.7389 89° East 441 507 25,500 -900 Descending Cleveland Center
10:12PM 42.1989 -78.5764 88° East 441 507 25,000 -300 Descending Cleveland Center
10:13PM 42.2000 -78.4108 89° East 441 507 25,000  Level Cleveland Center
10:14PM 42.2031 -78.2425 89° East 441 507 25,000 -540 Level Cleveland Center
10:15PM 42.2058 -78.0744 89° East 441 507 24,000 -1,020 Descending Cleveland Center
10:18PM 42.2078 -77.6803 89° East 461 531 21,600 -1,020 Descending New York Center
10:19PM 42.2089 -77.5153 89° East 456 525 20,600 -1,080 Descending New York Center
10:20PM 42.2094 -77.3531 90° East 445 512 19,500 -1,500 Descending New York Center
10:21PM 42.2097 -77.1961 90° East 433 498 17,600 -1,800 Descending New York Center
10:22PM 42.2094 -77.0478 90° East 412 474 15,900 -2,100 Descending New York Center
10:23PM 42.2103 -76.9106 89° East 386 444 13,400 -2,520 Descending New York Center
10:24PM 42.2108 -76.7761 90° East 366 421 10,900 -1,920 Descending New York Center
10:25PM 42.2092 -76.6444 91° East 341 392 9,600 -960 Descending New York Center
10:26PM 42.2081 -76.5381 91° East 305 351 9,000 -840 Descending New York Center
10:27PM 42.2089 -76.4317 89° East 288 331 8,000 -1,500 Descending New York Center
10:28PM 42.1822 -76.3397 111° Southeast 263 303 6,100 -1,920 Descending New York Center
10:29PM 42.1228 -76.2706 139° Southeast 263 303 4,200 -1,080 Descending New York Center
10:30PM 42.0656 -76.2014 138° Southeast 268 308 4,000 -120 Descending New York Center
10:31PM 42.0042 -76.1350 141° Southeast 279 321 4,000  Level New York Center
10:32PM 41.9811 -76.0467 109° East 254 292 4,000  Level New York Center
10:33PM 41.9911 -75.9583 81° East 243 280 4,000 -60 Level New York Center
10:34PM 42.0014 -75.8697 81° East 243 280 3,900 -60 Descending New York Center
10:35PM 42.0578 -75.8600 North 170 196 3,900  Level New York Center
10:36PM 42.1003 -75.8914 331° Northwest 150 173 3,900 -360 Level New York Center
10:37PM 42.1325 -75.9189 328° Northwest 138 159 3,200 -720 Descending New York Center
10:38PM 42.1625 -75.9436 329° Northwest 127 146 2,500 -720 Descending New York Center